createdAt,value
2023-03-29T00:01:44.774Z,101392.78
2023-03-29T00:04:48.521Z,101381.75
2023-03-29T00:08:01.856Z,101392.03
2023-03-29T00:11:05.427Z,101382.81
2023-03-29T00:14:08.612Z,101383.91
2023-03-29T00:17:11.193Z,101386.84
2023-03-29T00:20:14.003Z,101381.63
2023-03-29T00:23:18.276Z,101387.56
2023-03-29T00:26:20.790Z,101377.13
2023-03-29T00:29:24.234Z,101386.38
2023-03-29T00:32:27.398Z,101394.19
2023-03-29T00:35:30.038Z,101394.66
2023-03-29T00:38:32.933Z,101395.91
2023-03-29T00:41:36.460Z,101396.50
2023-03-29T00:44:59.842Z,101395.31
2023-03-29T00:48:06.435Z,101395.03
2023-03-29T00:51:13.286Z,101399.97
2023-03-29T00:54:18.804Z,101404.75
2023-03-29T00:57:25.282Z,101391.53
2023-03-29T01:00:37.049Z,101387.63
2023-03-29T01:04:05.132Z,101386.34
2023-03-29T01:07:30.420Z,101386.63
2023-03-29T01:10:51.307Z,101382.75
2023-03-29T01:14:04.013Z,101393.81
2023-03-29T01:17:07.518Z,101382.91
2023-03-29T01:20:20.269Z,101380.25
2023-03-29T01:23:29.803Z,101376.97
2023-03-29T01:26:33.388Z,101378.41
2023-03-29T01:29:51.215Z,101364.25
2023-03-29T01:33:03.881Z,101374.75
2023-03-29T01:36:39.474Z,101371.81
2023-03-29T01:39:42.958Z,101373.66
2023-03-29T01:43:12.129Z,101375.78
2023-03-29T01:46:38.641Z,101369.59
2023-03-29T01:49:48.368Z,101372.47
2023-03-29T01:52:56.855Z,101364.25
2023-03-29T01:56:07.773Z,101371.66
2023-03-29T01:59:18.163Z,101366.72
2023-03-29T02:02:25.191Z,101366.72
2023-03-29T02:05:31.822Z,101374.13
2023-03-29T02:08:35.210Z,101378.69
2023-03-29T02:11:37.884Z,101375.34
2023-03-29T02:14:40.695Z,101372.50
2023-03-29T02:17:44.447Z,101371.88
2023-03-29T02:20:49.900Z,101369.59
2023-03-29T02:23:55.856Z,101368.56
2023-03-29T02:27:00.411Z,101377.03
2023-03-29T02:30:06.715Z,101377.63
2023-03-29T02:33:19.523Z,101369.25
2023-03-29T02:36:28.308Z,101375.41
2023-03-29T02:39:33.828Z,101374.34
2023-03-29T02:42:42.665Z,101368.59
2023-03-29T02:45:46.491Z,101376.19
2023-03-29T02:48:52.001Z,101385.91
2023-03-29T02:52:01.075Z,101386.09
2023-03-29T02:55:08.616Z,101392.25
2023-03-29T02:58:13.478Z,101388.78
2023-03-29T03:01:20.414Z,101392.88
2023-03-29T03:04:26.064Z,101391.88
2023-03-29T03:07:30.002Z,101398.03
2023-03-29T03:10:34.835Z,101395.56
2023-03-29T03:13:38.960Z,101399.25
2023-03-29T03:16:43.367Z,101405.00
2023-03-29T03:19:46.429Z,101405.00
2023-03-29T03:22:50.026Z,101401.72
2023-03-29T03:25:53.833Z,101404.19
2023-03-29T03:28:57.445Z,101399.88
2023-03-29T03:32:39.080Z,101404.19
2023-03-29T03:36:06.408Z,101407.25
2023-03-29T03:39:12.332Z,101402.97
2023-03-29T03:42:15.466Z,101407.28
2023-03-29T03:45:21.183Z,101408.09
2023-03-29T03:48:48.070Z,101413.22
2023-03-29T03:52:20.808Z,101413.81
2023-03-29T03:55:24.524Z,101409.72
2023-03-29T03:58:38.081Z,101404.81
2023-03-29T04:01:45.402Z,101407.06
2023-03-29T04:04:52.062Z,101409.31
2023-03-29T04:07:56.179Z,101411.38
2023-03-29T04:11:27.997Z,101412.00
2023-03-29T04:14:32.402Z,101401.47
2023-03-29T04:18:07.706Z,101406.22
2023-03-29T04:21:18.904Z,101406.03
2023-03-29T04:24:24.308Z,101411.56
2023-03-29T04:27:48.674Z,101415.25
2023-03-29T04:31:17.003Z,101411.16
2023-03-29T04:34:38.381Z,101404.56
2023-03-29T04:37:41.914Z,101410.31
2023-03-29T04:40:48.540Z,101405.13
2023-03-29T04:44:02.913Z,101410.25
2023-03-29T04:47:07.599Z,101399.97
2023-03-29T04:50:37.562Z,101408.16
2023-03-29T04:53:40.713Z,101400.53
2023-03-29T04:56:43.323Z,101401.91
2023-03-29T05:00:08.350Z,101401.84
2023-03-29T05:03:31.562Z,101420.56
2023-03-29T05:06:46.139Z,101415.19
2023-03-29T05:09:48.944Z,101418.63
2023-03-29T05:12:54.254Z,101420.69
2023-03-29T05:16:00.789Z,101419.56
2023-03-29T05:19:04.289Z,101419.06
2023-03-29T05:22:09.142Z,101415.19
2023-03-29T05:25:13.443Z,101417.59
2023-03-29T05:28:19.310Z,101412.09
2023-03-29T05:31:24.633Z,101408.53
2023-03-29T05:34:31.909Z,101413.66
2023-03-29T05:37:39.353Z,101412.22
2023-03-29T05:40:45.497Z,101406.59
2023-03-29T05:44:14.894Z,101414.28
2023-03-29T05:47:21.097Z,101415.91
2023-03-29T05:50:38.376Z,101428.47
2023-03-29T05:53:46.992Z,101434.19
2023-03-29T05:56:50.554Z,101424.91
2023-03-29T06:00:25.558Z,101424.19
2023-03-29T06:03:45.341Z,101426.66
2023-03-29T06:06:51.019Z,101430.69
2023-03-29T06:09:56.829Z,101441.13
2023-03-29T06:13:00.251Z,101440.81
2023-03-29T06:16:04.389Z,101437.41
2023-03-29T06:19:17.430Z,101431.44
2023-03-29T06:22:27.295Z,101440.22
2023-03-29T06:25:44.751Z,101437.00
2023-03-29T06:28:51.406Z,101449.91
2023-03-29T06:31:57.366Z,101442.03
2023-03-29T06:35:21.324Z,101444.72
2023-03-29T06:38:34.039Z,101449.63
2023-03-29T06:41:49.237Z,101456.69
2023-03-29T06:45:17.971Z,101456.94
2023-03-29T06:48:30.867Z,101453.06
2023-03-29T06:51:54.545Z,101454.56
2023-03-29T06:55:07.593Z,101455.16
2023-03-29T06:58:15.606Z,101454.47
2023-03-29T07:01:19.343Z,101460.69
2023-03-29T07:04:27.135Z,101456.88
2023-03-29T07:08:00.370Z,101456.06
2023-03-29T07:11:22.203Z,101465.41
2023-03-29T07:14:31.558Z,101463.75
2023-03-29T07:17:34.804Z,101478.69
2023-03-29T07:20:40.591Z,101481.72
2023-03-29T07:23:45.274Z,101476.31
2023-03-29T07:27:00.234Z,101475.59
2023-03-29T07:30:11.404Z,101485.16
2023-03-29T07:33:15.027Z,101484.53
2023-03-29T07:36:25.534Z,101487.84
2023-03-29T07:39:31.728Z,101488.31
2023-03-29T07:43:09.135Z,101493.59
2023-03-29T07:46:53.128Z,101487.88
2023-03-29T07:50:56.864Z,101480.72
2023-03-29T07:54:26.568Z,101486.09
2023-03-29T07:57:53.617Z,101489.72
2023-03-29T08:00:58.694Z,101492.59
2023-03-29T08:04:42.041Z,101489.59
2023-03-29T08:07:59.589Z,101483.16
2023-03-29T08:11:33.630Z,101478.66
2023-03-29T08:14:40.312Z,101480.88
2023-03-29T08:18:08.103Z,101476.09
2023-03-29T08:21:12.822Z,101466.22
2023-03-29T08:24:17.636Z,101471.59
2023-03-29T08:27:26.185Z,101469.59
2023-03-29T08:30:29.813Z,101467.63
2023-03-29T08:33:33.945Z,101461.41
2023-03-29T08:37:11.040Z,101467.13
2023-03-29T08:45:08.621Z,101473.44
2023-03-29T08:48:30.102Z,101472.69
2023-03-29T08:51:46.633Z,101459.13
2023-03-29T08:54:53.982Z,101469.09
2023-03-29T08:58:08.373Z,101458.06
2023-03-29T09:01:12.602Z,101455.06
2023-03-29T09:04:34.280Z,101458.41
2023-03-29T09:07:45.709Z,101449.16
2023-03-29T09:11:16.932Z,101447.53
2023-03-29T09:14:42.473Z,101438.88
2023-03-29T09:18:00.040Z,101436.81
2023-03-29T09:21:16.435Z,101425.88
2023-03-29T09:24:42.935Z,101432.66
2023-03-29T09:28:04.284Z,101426.75
2023-03-29T09:31:37.426Z,101427.34
2023-03-29T09:35:19.342Z,101413.53
2023-03-29T09:38:54.938Z,101421.78
2023-03-29T09:42:22.579Z,101417.34
2023-03-29T09:45:31.961Z,101411.47
2023-03-29T09:48:42.057Z,101408.22
2023-03-29T09:51:51.642Z,101405.25
2023-03-29T09:54:58.174Z,101402.03
2023-03-29T09:58:23.320Z,101396.69
2023-03-29T10:01:38.299Z,101387.50
2023-03-29T10:04:43.402Z,101390.03
2023-03-29T10:07:53.799Z,101392.91
2023-03-29T10:11:04.336Z,101380.03
2023-03-29T10:14:20.662Z,101376.19
2023-03-29T10:17:30.460Z,101377.91
2023-03-29T10:20:38.263Z,101363.16
2023-03-29T10:23:41.590Z,101364.72
2023-03-29T10:26:44.888Z,101348.09
2023-03-29T10:29:47.932Z,101353.59
2023-03-29T10:32:59.859Z,101347.31
2023-03-29T10:36:06.904Z,101357.47
2023-03-29T10:39:15.667Z,101349.94
2023-03-29T10:42:23.854Z,101336.81
2023-03-29T10:45:35.010Z,101344.22
2023-03-29T10:48:38.124Z,101336.00
2023-03-29T10:51:45.702Z,101342.63
2023-03-29T10:54:52.579Z,101328.50
2023-03-29T10:58:27.622Z,101334.13
2023-03-29T11:02:23.153Z,101327.44
2023-03-29T11:06:01.649Z,101325.88
2023-03-29T11:09:39.474Z,101321.75
2023-03-29T11:12:50.169Z,101317.22
2023-03-29T11:16:05.093Z,101310.19
2023-03-29T11:19:10.453Z,101302.31
2023-03-29T11:22:22.966Z,101312.72
2023-03-29T11:25:42.043Z,101310.41
2023-03-29T11:29:14.941Z,101308.81
2023-03-29T11:32:29.942Z,101298.59
2023-03-29T11:35:41.923Z,101308.81
2023-03-29T11:39:16.124Z,101297.25
2023-03-29T11:42:24.455Z,101288.19
2023-03-29T11:45:35.586Z,101279.47
2023-03-29T11:48:53.929Z,101280.88
2023-03-29T11:52:22.742Z,101278.53
2023-03-29T11:55:30.055Z,101282.53
2023-03-29T11:58:40.990Z,101269.59
2023-03-29T12:02:14.881Z,101277.72
2023-03-29T12:06:01.254Z,101284.19
2023-03-29T12:09:24.299Z,101269.31
2023-03-29T12:12:49.437Z,101272.56
2023-03-29T12:22:01.438Z,101267.44
2023-03-29T12:25:18.424Z,101253.03
2023-03-29T12:28:53.162Z,101236.97
2023-03-29T12:31:59.775Z,101237.78
2023-03-29T12:35:26.713Z,101231.09
2023-03-29T12:39:19.941Z,101229.16
2023-03-29T12:42:47.182Z,101230.47
2023-03-29T12:46:24.661Z,101218.34
2023-03-29T12:49:36.182Z,101220.69
2023-03-29T12:53:00.596Z,101223.78
2023-03-29T12:56:25.645Z,101230.84
2023-03-29T12:59:40.873Z,101213.31
2023-03-29T13:02:45.831Z,101211.22
2023-03-29T13:06:00.045Z,101220.94
2023-03-29T13:09:23.377Z,101216.34
2023-03-29T13:12:32.172Z,101202.72
2023-03-29T13:15:37.659Z,101207.28
2023-03-29T13:19:02.859Z,101200.84
2023-03-29T13:22:47.015Z,101196.06
2023-03-29T13:26:19.755Z,101193.41
2023-03-29T13:30:06.028Z,101178.22
2023-03-29T13:33:38.649Z,101183.41
2023-03-29T13:37:13.021Z,101180.97
2023-03-29T13:40:44.145Z,101179.94
2023-03-29T13:43:59.280Z,101172.78
2023-03-29T13:47:19.317Z,101161.31
2023-03-29T13:50:35.335Z,101159.03
2023-03-29T13:53:46.875Z,101163.00
2023-03-29T13:57:05.161Z,101158.06
2023-03-29T14:00:20.389Z,101160.31
2023-03-29T14:03:29.829Z,101159.19
2023-03-29T14:06:37.576Z,101160.63
2023-03-29T14:09:44.574Z,101150.66
2023-03-29T14:12:49.622Z,101154.66
2023-03-29T14:16:02.800Z,101149.75
2023-03-29T14:19:15.489Z,101150.56
2023-03-29T14:22:21.993Z,101145.88
2023-03-29T14:25:25.597Z,101149.44
2023-03-29T14:28:29.324Z,101133.44
2023-03-29T14:31:38.122Z,101143.13
2023-03-29T14:34:41.914Z,101142.63
2023-03-29T14:37:48.691Z,101141.66
2023-03-29T14:41:02.748Z,101134.94
2023-03-29T14:44:08.263Z,101141.81
2023-03-29T14:47:23.970Z,101140.91
2023-03-29T14:50:30.981Z,101122.97
2023-03-29T14:53:38.092Z,101130.78
2023-03-29T14:56:42.248Z,101127.75
2023-03-29T14:59:55.996Z,101136.50
2023-03-29T15:03:01.754Z,101124.59
2023-03-29T15:06:05.466Z,101129.38
2023-03-29T15:09:17.046Z,101130.13
2023-03-29T15:12:20.432Z,101127.91
2023-03-29T15:15:25.714Z,101130.91
2023-03-29T15:18:32.699Z,101126.88
2023-03-29T15:21:36.232Z,101117.97
2023-03-29T15:24:45.142Z,101117.22
2023-03-29T15:27:57.231Z,101113.59
2023-03-29T15:31:21.059Z,101114.94
2023-03-29T15:34:27.378Z,101114.00
2023-03-29T15:37:30.094Z,101114.84
2023-03-29T15:40:33.388Z,101105.41
2023-03-29T15:43:37.295Z,101098.88
2023-03-29T15:46:41.336Z,101110.19
2023-03-29T15:49:47.491Z,101103.94
2023-03-29T15:52:50.529Z,101098.06
2023-03-29T15:56:00.801Z,101100.75
2023-03-29T15:59:04.990Z,101091.38
2023-03-29T16:02:15.873Z,101082.66
2023-03-29T16:05:19.139Z,101089.78
2023-03-29T16:08:21.814Z,101087.22
2023-03-29T16:11:24.593Z,101077.97
2023-03-29T16:14:30.495Z,101085.91
2023-03-29T16:17:34.334Z,101083.25
2023-03-29T16:20:42.045Z,101078.25
2023-03-29T16:23:47.194Z,101074.63
2023-03-29T16:26:54.656Z,101072.38
2023-03-29T16:29:59.109Z,101072.81
2023-03-29T16:33:06.289Z,101073.91
2023-03-29T16:36:10.303Z,101064.94
2023-03-29T16:39:14.158Z,101064.91
2023-03-29T16:45:20.374Z,101060.19
2023-03-29T16:48:24.068Z,101067.25
2023-03-29T16:51:27.421Z,101078.41
2023-03-29T16:54:31.788Z,101077.75
2023-03-29T16:57:34.619Z,101070.63
2023-03-29T17:00:38.079Z,101071.00
2023-03-29T17:03:41.240Z,101070.97
2023-03-29T17:06:43.899Z,101073.91
2023-03-29T17:09:47.720Z,101062.25
2023-03-29T17:12:51.515Z,101064.53
2023-03-29T17:15:55.632Z,101058.84
2023-03-29T17:19:00.640Z,101062.03
2023-03-29T17:22:03.795Z,101068.50
2023-03-29T17:25:08.418Z,101073.41
2023-03-29T17:28:12.121Z,101067.88
2023-03-29T17:31:16.148Z,101067.94
2023-03-29T17:34:19.718Z,101075.53
2023-03-29T17:37:22.767Z,101083.03
2023-03-29T17:40:27.175Z,101088.47
2023-03-29T17:43:30.407Z,101085.38
2023-03-29T17:46:33.558Z,101087.09
2023-03-29T17:49:36.558Z,101082.81
2023-03-29T17:52:39.706Z,101089.34
2023-03-29T17:55:43.131Z,101100.16
2023-03-29T17:58:46.584Z,101085.03
2023-03-29T18:01:49.426Z,101094.50
2023-03-29T18:04:52.568Z,101101.56
2023-03-29T18:07:55.449Z,101099.38
2023-03-29T18:11:11.662Z,101099.13
2023-03-29T18:14:14.337Z,101105.63
2023-03-29T18:17:17.112Z,101108.31
2023-03-29T18:20:20.780Z,101110.97
2023-03-29T18:23:23.512Z,101112.09
2023-03-29T18:26:26.618Z,101123.50
2023-03-29T18:29:30.055Z,101121.06
2023-03-29T18:32:33.202Z,101118.09
2023-03-29T18:35:36.327Z,101120.53
2023-03-29T18:38:40.658Z,101123.50
2023-03-29T18:41:44.154Z,101119.72
2023-03-29T18:44:47.635Z,101120.25
2023-03-29T18:47:50.642Z,101128.94
2023-03-29T18:50:57.186Z,101125.94
2023-03-29T18:54:01.111Z,101131.38
2023-03-29T18:57:04.684Z,101127.03
2023-03-29T19:00:12.640Z,101122.97
2023-03-29T19:03:16.169Z,101121.63
2023-03-29T19:06:19.653Z,101118.91
2023-03-29T19:09:22.944Z,101123.25
2023-03-29T19:12:25.854Z,101121.88
2023-03-29T19:15:28.543Z,101120.81
2023-03-29T19:18:31.350Z,101123.78
2023-03-29T19:21:34.232Z,101129.22
2023-03-29T19:24:37.708Z,101126.50
2023-03-29T19:27:41.660Z,101132.97
2023-03-29T19:30:44.317Z,101134.63
2023-03-29T19:33:47.633Z,101141.41
2023-03-29T19:36:53.519Z,101139.50
2023-03-29T19:39:57.234Z,101134.88
2023-03-29T19:43:01.218Z,101125.97
2023-03-29T19:46:13.550Z,101133.28
2023-03-29T19:49:17.355Z,101134.88
2023-03-29T19:52:23.978Z,101129.47
2023-03-29T19:55:27.258Z,101128.66
2023-03-29T19:58:30.807Z,101126.50
2023-03-29T20:01:34.259Z,101116.75
2023-03-29T20:04:37.618Z,101126.22
2023-03-29T20:07:41.705Z,101122.97
2023-03-29T20:10:44.239Z,101129.41
2023-03-29T20:13:46.832Z,101127.50
2023-03-29T20:16:50.792Z,101124.25
2023-03-29T20:19:55.613Z,101119.13
2023-03-29T20:23:04.520Z,101108.34
2023-03-29T20:26:08.520Z,101111.06
2023-03-29T20:29:11.742Z,101115.41
2023-03-29T20:32:16.315Z,101107.53
2023-03-29T20:35:19.923Z,101101.84
2023-03-29T20:38:23.341Z,101101.84
2023-03-29T20:41:26.275Z,101104.00
2023-03-29T20:44:28.912Z,101097.25
2023-03-29T20:47:32.263Z,101085.34
2023-03-29T20:50:38.318Z,101090.47
2023-03-29T20:53:42.974Z,101093.44
2023-03-29T20:56:47.985Z,101091.56
2023-03-29T20:59:51.327Z,101093.72
2023-03-29T21:02:58.745Z,101089.38
2023-03-29T21:06:02.401Z,101093.72
2023-03-29T21:09:06.133Z,101087.22
2023-03-29T21:12:09.081Z,101089.66
2023-03-29T21:15:13.666Z,101086.41
2023-03-29T21:18:17.406Z,101084.22
2023-03-29T21:21:19.995Z,101084.75
2023-03-29T21:24:22.704Z,101089.09
2023-03-29T21:27:26.255Z,101085.59
2023-03-29T21:30:31.993Z,101090.19
2023-03-29T21:33:36.300Z,101080.69
2023-03-29T21:36:40.558Z,101083.72
2023-03-29T21:39:43.241Z,101083.69
2023-03-29T21:42:45.853Z,101082.09
2023-03-29T21:45:50.461Z,101083.72
2023-03-29T21:48:54.502Z,101088.53
2023-03-29T21:51:57.233Z,101086.09
2023-03-29T21:55:00.323Z,101074.78
2023-03-29T21:58:04.357Z,101080.72
2023-03-29T22:01:10.139Z,101077.50
2023-03-29T22:04:22.590Z,101079.09
2023-03-29T22:07:35.276Z,101079.09
2023-03-29T22:10:41.510Z,101085.31
2023-03-29T22:13:45.414Z,101077.47
2023-03-29T22:16:48.974Z,101084.78
2023-03-29T22:19:53.053Z,101087.19
2023-03-29T22:22:55.767Z,101079.63
2023-03-29T22:25:58.325Z,101078.03
2023-03-29T22:29:02.315Z,101078.00
2023-03-29T22:32:05.921Z,101082.06
2023-03-29T22:35:09.787Z,101080.19
2023-03-29T22:38:13.303Z,101075.84
2023-03-29T22:41:18.248Z,101084.25
2023-03-29T22:44:21.109Z,101082.34
2023-03-29T22:47:24.461Z,101092.09
2023-03-29T22:50:27.920Z,101094.81
2023-03-29T22:53:30.499Z,101087.78
2023-03-29T22:56:33.976Z,101087.25
2023-03-29T22:59:38.013Z,101088.88
2023-03-29T23:02:41.717Z,101096.19
2023-03-29T23:05:53.368Z,101084.50
2023-03-29T23:08:57.087Z,101082.00
2023-03-29T23:12:01.215Z,101088.22
2023-03-29T23:15:06.390Z,101091.19
2023-03-29T23:18:13.145Z,101096.88
2023-03-29T23:21:16.266Z,101090.38
2023-03-29T23:24:19.297Z,101088.69
2023-03-29T23:27:22.874Z,101088.41
2023-03-29T23:30:25.496Z,101083.28
2023-03-29T23:33:36.431Z,101087.41
2023-03-29T23:36:39.902Z,101089.91
2023-03-29T23:39:42.764Z,101075.81
2023-03-29T23:42:46.593Z,101087.69
2023-03-29T23:45:56.184Z,101080.38
2023-03-29T23:48:58.955Z,101086.59
2023-03-29T23:52:02.622Z,101078.44
2023-03-29T23:55:05.834Z,101079.81
2023-03-29T23:58:09.257Z,101080.63
